createdAt,value
2017-01-14T00:00:01.103Z,100
2017-01-14T00:00:22.430Z,100
2017-01-14T00:00:43.738Z,100
2017-01-14T00:01:05.041Z,100
2017-01-14T00:01:26.382Z,100
2017-01-14T00:01:47.687Z,100
2017-01-14T00:02:09.004Z,100
2017-01-14T00:02:30.321Z,100
2017-01-14T00:02:51.622Z,100
2017-01-14T00:03:12.943Z,100
2017-01-14T00:03:34.267Z,100
2017-01-14T00:03:55.602Z,100
2017-01-14T00:04:16.904Z,100
2017-01-14T00:04:38.225Z,100
2017-01-14T00:04:59.562Z,100
2017-01-14T00:05:20.883Z,100
2017-01-14T00:05:42.218Z,100
2017-01-14T00:06:03.523Z,100
2017-01-14T00:06:24.854Z,100
2017-01-14T00:06:46.172Z,100
2017-01-14T00:07:07.508Z,100
2017-01-14T00:07:28.851Z,100
2017-01-14T00:07:50.152Z,100
2017-01-14T00:08:11.465Z,100
2017-01-14T00:08:32.772Z,100
2017-01-14T00:08:54.098Z,100
2017-01-14T00:09:15.427Z,100
2017-01-14T00:09:36.740Z,100
2017-01-14T00:09:58.047Z,100
2017-01-14T00:10:19.371Z,100
2017-01-14T00:10:40.678Z,100
2017-01-14T00:11:02.023Z,100
2017-01-14T00:11:23.323Z,100
2017-01-14T00:11:44.618Z,100
2017-01-14T00:12:05.923Z,100
2017-01-14T00:12:27.223Z,100
2017-01-14T00:12:48.527Z,100
2017-01-14T00:13:09.830Z,100
2017-01-14T00:13:31.124Z,100
2017-01-14T00:13:52.463Z,100
2017-01-14T00:14:13.780Z,100
2017-01-14T00:14:35.079Z,100
2017-01-14T00:14:56.390Z,100
2017-01-14T00:15:17.716Z,100
2017-01-14T00:15:39.009Z,100
2017-01-14T00:16:00.318Z,100
2017-01-14T00:16:21.614Z,100
2017-01-14T00:16:42.963Z,100
2017-01-14T00:17:04.275Z,100
2017-01-14T00:17:25.570Z,100
2017-01-14T00:17:46.899Z,100
2017-01-14T00:18:08.190Z,100
2017-01-14T00:18:29.490Z,100
2017-01-14T00:18:50.782Z,100
2017-01-14T00:19:12.081Z,100
2017-01-14T00:19:33.378Z,100
2017-01-14T00:19:54.703Z,100
2017-01-14T00:20:16.020Z,100
2017-01-14T00:20:37.344Z,100
2017-01-14T00:20:58.654Z,100
2017-01-14T00:21:19.950Z,100
2017-01-14T00:21:41.247Z,100
2017-01-14T00:22:02.547Z,100
2017-01-14T00:22:23.856Z,100
2017-01-14T00:22:45.143Z,100
2017-01-14T00:23:06.449Z,100
2017-01-14T00:23:27.758Z,100
2017-01-14T00:23:49.071Z,100
2017-01-14T00:24:10.369Z,100
2017-01-14T00:24:31.667Z,100
2017-01-14T00:24:52.968Z,100
2017-01-14T00:25:14.267Z,100
2017-01-14T00:25:35.570Z,100
2017-01-14T00:25:56.857Z,100
2017-01-14T00:26:18.184Z,100
2017-01-14T00:26:39.487Z,100
2017-01-14T00:27:00.807Z,100
2017-01-14T00:27:22.106Z,100
2017-01-14T00:27:43.460Z,100
2017-01-14T00:28:04.753Z,100
2017-01-14T00:28:26.048Z,100
2017-01-14T00:28:47.351Z,100
2017-01-14T00:29:08.650Z,100
2017-01-14T00:29:29.949Z,100
2017-01-14T00:29:51.263Z,100
2017-01-14T00:30:12.570Z,100
2017-01-14T00:30:33.887Z,100
2017-01-14T00:30:55.196Z,100
2017-01-14T00:31:16.487Z,100
2017-01-14T00:31:37.784Z,100
2017-01-14T00:31:59.083Z,100
2017-01-14T00:32:20.407Z,100
2017-01-14T00:32:41.704Z,100
2017-01-14T00:33:03.009Z,100
2017-01-14T00:33:24.324Z,100
2017-01-14T00:33:45.623Z,100
2017-01-14T00:34:06.928Z,100
2017-01-14T00:34:28.243Z,100
2017-01-14T00:34:49.535Z,100
2017-01-14T00:35:10.844Z,100
2017-01-14T00:35:32.137Z,100
2017-01-14T00:35:53.447Z,100
2017-01-14T00:36:14.763Z,100
2017-01-14T00:36:36.069Z,100
2017-01-14T00:36:57.394Z,100
2017-01-14T00:37:18.691Z,100
2017-01-14T00:37:39.980Z,100
2017-01-14T00:38:01.303Z,100
2017-01-14T00:38:22.634Z,100
2017-01-14T00:38:43.928Z,100
2017-01-14T00:39:05.225Z,100
2017-01-14T00:39:26.593Z,100
2017-01-14T00:39:47.889Z,100
2017-01-14T00:40:09.211Z,100
2017-01-14T00:40:30.533Z,100
2017-01-14T00:40:51.846Z,100
2017-01-14T00:41:13.146Z,100
2017-01-14T00:41:34.496Z,100
2017-01-14T00:41:55.797Z,100
2017-01-14T00:42:17.104Z,100
2017-01-14T00:42:38.412Z,100
2017-01-14T00:42:59.731Z,100
2017-01-14T00:43:21.027Z,100
2017-01-14T00:43:42.387Z,100
2017-01-14T00:44:03.707Z,100
2017-01-14T00:44:24.997Z,100
2017-01-14T00:44:46.305Z,100
2017-01-14T00:45:07.603Z,100
2017-01-14T00:45:28.912Z,100
2017-01-14T00:45:50.218Z,100
2017-01-14T00:46:11.512Z,100
2017-01-14T00:46:32.860Z,99.8
2017-01-14T00:46:54.162Z,99.8
2017-01-14T00:47:15.458Z,99.8
2017-01-14T00:47:36.768Z,99.8
2017-01-14T00:47:58.086Z,99.8
2017-01-14T00:48:19.385Z,99.9
2017-01-14T00:48:40.688Z,100
2017-01-14T00:49:02.000Z,99.7
2017-01-14T00:49:23.317Z,99.8
2017-01-14T00:49:44.622Z,100
2017-01-14T00:50:05.946Z,100
2017-01-14T00:50:27.234Z,100
2017-01-14T00:50:48.540Z,100
2017-01-14T00:51:09.841Z,100
2017-01-14T00:51:31.143Z,99.7
2017-01-14T00:51:52.431Z,99.8
2017-01-14T00:52:13.726Z,99.9
2017-01-14T00:52:35.030Z,99.6
2017-01-14T00:52:56.334Z,99.3
2017-01-14T00:53:17.636Z,99.5
2017-01-14T00:53:38.942Z,99.3
2017-01-14T00:54:00.239Z,99.8
2017-01-14T00:54:21.541Z,100
2017-01-14T00:54:42.851Z,99.8
2017-01-14T00:55:04.144Z,99.8
2017-01-14T00:55:25.439Z,99.1
2017-01-14T00:55:46.741Z,99
2017-01-14T00:56:08.077Z,99.6
2017-01-14T00:56:29.373Z,99.2
2017-01-14T00:56:50.664Z,99.4
2017-01-14T00:57:11.989Z,99.9
2017-01-14T00:57:33.287Z,99.9
2017-01-14T00:57:54.597Z,99.6
2017-01-14T00:58:15.884Z,99.7
2017-01-14T00:58:37.180Z,99.6
2017-01-14T00:58:58.474Z,98.9
2017-01-14T00:59:19.770Z,98.8
2017-01-14T00:59:41.069Z,99
2017-01-14T01:00:02.375Z,99
2017-01-14T01:00:23.673Z,99.1
2017-01-14T01:00:44.974Z,98.8
2017-01-14T01:01:06.274Z,98.5
2017-01-14T01:01:27.580Z,98.1
2017-01-14T01:02:00.971Z,97.8
2017-01-14T01:02:22.287Z,98.2
2017-01-14T01:02:43.588Z,98.3
2017-01-14T01:03:04.899Z,98.4
2017-01-14T01:03:26.203Z,98.7
2017-01-14T01:03:47.507Z,98.5
2017-01-14T01:04:08.818Z,98.5
2017-01-14T01:04:30.124Z,98.3
2017-01-14T01:04:51.416Z,98.8
2017-01-14T01:05:12.731Z,98.5
2017-01-14T01:05:34.017Z,98.2
2017-01-14T01:05:55.309Z,98
2017-01-14T01:06:16.610Z,97.9
2017-01-14T01:06:37.922Z,97.4
2017-01-14T01:06:59.221Z,97.1
2017-01-14T01:07:20.529Z,97.3
2017-01-14T01:07:41.831Z,97.4
2017-01-14T01:08:03.120Z,97.1
2017-01-14T01:08:24.421Z,97.3
2017-01-14T01:08:45.722Z,96.7
2017-01-14T01:09:07.020Z,96.5
2017-01-14T01:09:28.319Z,96.3
2017-01-14T01:09:49.649Z,96.4
2017-01-14T01:10:10.971Z,96.6
2017-01-14T01:10:32.259Z,96.4
2017-01-14T01:10:53.571Z,96.5
2017-01-14T01:11:14.881Z,96.2
2017-01-14T01:11:36.186Z,97.5
2017-01-14T01:11:57.490Z,97.1
2017-01-14T01:12:18.816Z,96.5
2017-01-14T01:12:40.111Z,96.6
2017-01-14T01:13:01.411Z,96.6
2017-01-14T01:13:22.714Z,96.6
2017-01-14T01:13:44.016Z,96.7
2017-01-14T01:14:05.325Z,96.6
2017-01-14T01:14:26.659Z,95.7
2017-01-14T01:14:47.964Z,96
2017-01-14T01:15:09.266Z,95.7
2017-01-14T01:15:30.561Z,95.7
2017-01-14T01:15:51.870Z,95.7
2017-01-14T01:16:13.162Z,95.7
2017-01-14T01:16:34.484Z,95.9
2017-01-14T01:16:55.830Z,96
2017-01-14T01:17:17.127Z,96.1
2017-01-14T01:17:38.441Z,95.8
2017-01-14T01:17:59.783Z,95.7
2017-01-14T01:18:21.081Z,95.7
2017-01-14T01:18:42.390Z,95.9
2017-01-14T01:19:03.695Z,96.1
2017-01-14T01:19:24.990Z,94.8
2017-01-14T01:19:46.282Z,95.4
2017-01-14T01:20:07.616Z,95.1
2017-01-14T01:20:28.930Z,95.1
2017-01-14T01:20:50.259Z,95
2017-01-14T01:21:11.636Z,95.2
2017-01-14T01:21:32.952Z,95.2
2017-01-14T01:21:54.255Z,94.9
2017-01-14T01:22:15.568Z,95.1
2017-01-14T01:22:36.869Z,95.5
2017-01-14T01:22:58.189Z,95.7
2017-01-14T01:23:19.490Z,95.9
2017-01-14T01:23:40.800Z,96.1
2017-01-14T01:24:02.118Z,96.1
2017-01-14T01:24:23.415Z,95.9
2017-01-14T01:24:44.718Z,95.1
2017-01-14T01:25:06.045Z,95.4
2017-01-14T01:25:27.346Z,95.8
2017-01-14T01:25:48.658Z,95.7
2017-01-14T01:26:09.962Z,95.7
2017-01-14T01:26:31.293Z,95.9
2017-01-14T01:26:52.615Z,95.7
2017-01-14T01:27:13.908Z,95.5
2017-01-14T01:27:35.209Z,95.8
2017-01-14T01:27:56.513Z,95.9
2017-01-14T01:28:17.822Z,96
2017-01-14T01:28:39.150Z,95.9
2017-01-14T01:29:00.458Z,95.9
2017-01-14T01:29:21.768Z,95.9
2017-01-14T01:29:43.081Z,95.7
2017-01-14T01:30:04.380Z,95
2017-01-14T01:30:25.683Z,95.5
2017-01-14T01:30:46.993Z,95.9
2017-01-14T01:31:08.300Z,96
2017-01-14T01:31:29.605Z,95.9
2017-01-14T01:31:50.903Z,95.9
2017-01-14T01:32:12.244Z,96.1
2017-01-14T01:32:33.558Z,95.9
2017-01-14T01:32:54.893Z,96.1
2017-01-14T01:33:16.191Z,96
2017-01-14T01:33:37.490Z,95.4
2017-01-14T01:33:58.802Z,95.7
2017-01-14T01:34:20.138Z,95.5
2017-01-14T01:34:41.437Z,96.6
2017-01-14T01:35:02.751Z,96.9
2017-01-14T01:35:24.060Z,97.3
2017-01-14T01:35:45.354Z,97.2
2017-01-14T01:36:06.658Z,97
2017-01-14T01:36:27.954Z,97.6
2017-01-14T01:36:49.271Z,97.9
2017-01-14T01:37:10.578Z,97.9
2017-01-14T01:37:31.890Z,97.9
2017-01-14T01:37:53.216Z,97.9
2017-01-14T01:38:14.521Z,97.6
2017-01-14T01:38:35.816Z,97.3
2017-01-14T01:38:57.132Z,96.3
2017-01-14T01:39:18.428Z,97
2017-01-14T01:39:39.732Z,97.3
2017-01-14T01:40:01.026Z,97.4
2017-01-14T01:40:22.329Z,97.8
2017-01-14T01:40:43.622Z,97.8
2017-01-14T01:41:06.636Z,97.7
2017-01-14T01:41:31.510Z,97.9
2017-01-14T01:41:52.818Z,97.9
2017-01-14T01:42:14.136Z,98
2017-01-14T01:42:35.473Z,98.4
2017-01-14T01:42:56.802Z,97.9
2017-01-14T01:43:18.109Z,97.4
2017-01-14T01:43:39.444Z,96.8
2017-01-14T01:44:00.759Z,96.4
2017-01-14T01:44:22.060Z,96.4
2017-01-14T01:44:43.384Z,96.7
2017-01-14T01:45:04.688Z,97.1
2017-01-14T01:45:25.994Z,97.7
2017-01-14T01:45:47.287Z,97.7
2017-01-14T01:46:08.592Z,97.9
2017-01-14T01:46:29.889Z,97.7
2017-01-14T01:46:51.215Z,97.9
2017-01-14T01:47:12.550Z,97.1
2017-01-14T01:47:33.837Z,96.1
2017-01-14T01:47:55.133Z,96
2017-01-14T01:48:16.457Z,95.5
2017-01-14T01:48:37.759Z,95.7
2017-01-14T01:48:59.053Z,95.3
2017-01-14T01:49:20.355Z,95.2
2017-01-14T01:49:41.670Z,94.9
2017-01-14T01:50:02.961Z,95.1
2017-01-14T01:50:24.265Z,95
2017-01-14T01:50:45.582Z,94.3
2017-01-14T01:51:06.927Z,93.8
2017-01-14T01:51:28.247Z,93.1
2017-01-14T01:51:49.547Z,92.2
2017-01-14T01:52:10.847Z,92.5
2017-01-14T01:52:32.144Z,92.4
2017-01-14T01:52:53.454Z,91.9
2017-01-14T01:53:14.789Z,91.8
2017-01-14T01:53:36.114Z,91.8
2017-01-14T01:53:57.426Z,92.4
2017-01-14T01:54:18.735Z,92.4
2017-01-14T01:54:40.052Z,92.5
2017-01-14T01:55:01.390Z,92.4
2017-01-14T01:55:23.089Z,91.9
2017-01-14T01:55:45.778Z,92.4
2017-01-14T01:56:09.541Z,93.3
2017-01-14T01:56:30.901Z,93.2
2017-01-14T01:56:52.525Z,93.9
2017-01-14T01:57:13.829Z,93.9
2017-01-14T01:57:35.366Z,94.3
2017-01-14T01:57:56.790Z,92.9
2017-01-14T01:58:18.106Z,93.4
2017-01-14T01:58:39.493Z,93.9
2017-01-14T01:59:00.807Z,93.8
2017-01-14T01:59:22.136Z,94.5
2017-01-14T01:59:43.451Z,95
2017-01-14T02:00:04.827Z,94.4
2017-01-14T02:00:26.141Z,95.1
2017-01-14T02:00:47.526Z,95.5
2017-01-14T02:01:09.086Z,94.8
2017-01-14T02:01:30.745Z,94.7
2017-01-14T02:01:52.271Z,94.5
2017-01-14T02:02:13.613Z,94.5
2017-01-14T02:02:37.873Z,94.4
2017-01-14T02:02:59.198Z,94.3
2017-01-14T02:03:20.643Z,94.4
2017-01-14T02:03:41.978Z,95.5
2017-01-14T02:04:03.298Z,95.5
2017-01-14T02:04:24.711Z,95.7
2017-01-14T02:04:46.018Z,95.5
2017-01-14T02:05:07.335Z,95
2017-01-14T02:05:28.648Z,95.5
2017-01-14T02:05:49.983Z,94.7
2017-01-14T02:06:12.028Z,93.8
2017-01-14T02:06:33.323Z,94.1
2017-01-14T02:06:54.778Z,94.2
2017-01-14T02:07:16.075Z,95
2017-01-14T02:07:37.846Z,95.1
2017-01-14T02:07:59.151Z,95.8
2017-01-14T02:08:20.544Z,95.5
2017-01-14T02:08:41.853Z,94.8
2017-01-14T02:09:03.288Z,94
2017-01-14T02:09:24.604Z,93.7
2017-01-14T02:09:46.054Z,92.3
2017-01-14T02:10:07.375Z,92.2
2017-01-14T02:10:28.685Z,92.3
2017-01-14T02:10:49.984Z,93.4
2017-01-14T02:11:11.299Z,93.2
2017-01-14T02:11:32.624Z,94.3
2017-01-14T02:11:54.097Z,94.9
2017-01-14T02:12:15.461Z,94.9
2017-01-14T02:12:36.780Z,93.6
2017-01-14T02:12:58.078Z,93.9
2017-01-14T02:13:19.369Z,94.7
2017-01-14T02:13:40.690Z,94.9
2017-01-14T02:14:02.041Z,95.1
2017-01-14T02:14:23.343Z,95.4
2017-01-14T02:14:44.677Z,95.2
2017-01-14T02:15:05.968Z,95.5
2017-01-14T02:15:27.269Z,95.5
2017-01-14T02:15:48.583Z,95.9
2017-01-14T02:16:09.884Z,95.5
2017-01-14T02:16:31.192Z,95.7
2017-01-14T02:16:52.494Z,96
2017-01-14T02:17:13.800Z,96
2017-01-14T02:17:35.113Z,96.1
2017-01-14T02:17:56.422Z,95.8
2017-01-14T02:18:17.731Z,95.9
2017-01-14T02:18:39.034Z,95.6
2017-01-14T02:19:00.375Z,96
2017-01-14T02:19:21.680Z,95.9
2017-01-14T02:19:42.982Z,95.5
2017-01-14T02:20:04.316Z,96
2017-01-14T02:20:25.636Z,96.1
2017-01-14T02:20:46.938Z,95.9
2017-01-14T02:21:08.238Z,95.5
2017-01-14T02:21:29.532Z,95.6
2017-01-14T02:21:50.830Z,95.9
2017-01-14T02:22:12.177Z,95.9
2017-01-14T02:22:33.801Z,95.9
2017-01-14T02:22:55.124Z,96.1
2017-01-14T02:23:16.458Z,96.6
2017-01-14T02:23:37.775Z,96.2
2017-01-14T02:23:59.077Z,96.5
2017-01-14T02:24:20.382Z,96.5
2017-01-14T02:24:41.691Z,96.5
2017-01-14T02:25:02.982Z,96.5
2017-01-14T02:25:24.286Z,96.5
2017-01-14T02:25:45.610Z,96.3
2017-01-14T02:26:06.911Z,96.6
2017-01-14T02:26:28.210Z,96.7
2017-01-14T02:26:49.535Z,96
2017-01-14T02:27:10.838Z,96.6
2017-01-14T02:27:32.190Z,96.3
2017-01-14T02:27:53.504Z,96.6
2017-01-14T02:28:14.831Z,96
2017-01-14T02:28:36.175Z,96.1
2017-01-14T02:28:57.521Z,95.9
2017-01-14T02:29:18.821Z,96.5
2017-01-14T02:29:40.135Z,96.3
2017-01-14T02:30:01.449Z,96.5
2017-01-14T02:30:22.777Z,96.6
2017-01-14T02:30:44.065Z,96.6
2017-01-14T02:31:05.366Z,96.3
2017-01-14T02:31:26.662Z,96.6
2017-01-14T02:31:47.967Z,96.4
2017-01-14T02:32:09.269Z,95.8
2017-01-14T02:32:30.580Z,95.7
2017-01-14T02:32:51.894Z,96
2017-01-14T02:33:13.224Z,95.9
2017-01-14T02:33:34.518Z,96
2017-01-14T02:33:55.861Z,95.9
2017-01-14T02:34:17.152Z,95.9
2017-01-14T02:34:38.458Z,95.9
2017-01-14T02:34:59.755Z,96.4
2017-01-14T02:35:21.084Z,96.3
2017-01-14T02:35:42.430Z,96.7
2017-01-14T02:36:03.738Z,96.8
2017-01-14T02:36:25.044Z,96.5
2017-01-14T02:36:46.341Z,96.9
2017-01-14T02:37:07.674Z,96.6
2017-01-14T02:37:28.967Z,97.3
2017-01-14T02:37:50.301Z,97
2017-01-14T02:38:11.603Z,97.1
2017-01-14T02:38:32.907Z,97.1
2017-01-14T02:38:54.215Z,96.9
2017-01-14T02:39:15.528Z,97.4
2017-01-14T02:39:36.837Z,97
2017-01-14T02:39:58.189Z,96.4
2017-01-14T02:40:19.488Z,97.4
2017-01-14T02:40:40.788Z,97.3
2017-01-14T02:41:02.105Z,96.9
2017-01-14T02:41:23.416Z,97
2017-01-14T02:41:44.722Z,97.1
2017-01-14T02:42:06.054Z,97.3
2017-01-14T02:42:27.354Z,96.8
2017-01-14T02:42:48.652Z,96.9
2017-01-14T02:43:09.972Z,97.2
2017-01-14T02:43:31.306Z,97.1
2017-01-14T02:43:52.603Z,96.3
2017-01-14T02:44:13.895Z,95.6
2017-01-14T02:44:35.210Z,95.6
2017-01-14T02:44:56.519Z,96.1
2017-01-14T02:45:17.822Z,95.7
2017-01-14T02:45:39.145Z,96.1
2017-01-14T02:46:00.452Z,96.1
2017-01-14T02:46:21.784Z,96.5
2017-01-14T02:46:43.082Z,96.3
2017-01-14T02:47:04.389Z,96.6
2017-01-14T02:47:25.705Z,96.8
2017-01-14T02:47:47.010Z,97.4
2017-01-14T02:48:08.314Z,96.5
2017-01-14T02:48:29.615Z,96.2
2017-01-14T02:48:50.923Z,96.4
2017-01-14T02:49:12.225Z,96.1
2017-01-14T02:49:33.546Z,95.9
2017-01-14T02:49:54.879Z,95.9
2017-01-14T02:50:16.852Z,96.1
2017-01-14T02:50:39.719Z,96.4
2017-01-14T02:51:02.569Z,96.8
2017-01-14T02:51:24.336Z,96.6
2017-01-14T02:51:45.654Z,96.4
2017-01-14T02:52:06.969Z,97.1
2017-01-14T02:52:28.623Z,97.3
2017-01-14T02:52:51.169Z,97
2017-01-14T02:53:14.067Z,97.1
2017-01-14T02:53:35.698Z,96.9
2017-01-14T02:53:57.062Z,97.1
2017-01-14T02:54:18.374Z,97.2
2017-01-14T02:54:39.680Z,97.6
2017-01-14T02:55:01.001Z,97
2017-01-14T02:55:22.311Z,97.1
2017-01-14T02:55:43.652Z,96.9
2017-01-14T02:56:04.957Z,97
2017-01-14T02:56:26.250Z,97.6
2017-01-14T02:56:47.542Z,97.6
2017-01-14T02:57:08.875Z,97.9
2017-01-14T02:57:30.188Z,97.9
2017-01-14T02:57:51.495Z,97.8
2017-01-14T02:58:12.808Z,97.8
2017-01-14T02:58:34.169Z,97.7
2017-01-14T02:58:55.485Z,97.6
2017-01-14T02:59:16.776Z,97.1
2017-01-14T02:59:38.091Z,97.1
2017-01-14T02:59:59.409Z,97.5
2017-01-14T03:00:20.740Z,97.4
2017-01-14T03:00:42.043Z,97.8
2017-01-14T03:01:03.349Z,98.5
2017-01-14T03:01:24.659Z,98.2
2017-01-14T03:01:45.978Z,97.9
2017-01-14T03:02:07.271Z,98.3
2017-01-14T03:02:28.581Z,98.3
2017-01-14T03:02:49.894Z,98.5
2017-01-14T03:03:11.189Z,98.5
2017-01-14T03:03:32.550Z,98.7
2017-01-14T03:03:53.887Z,98.2
2017-01-14T03:04:15.283Z,98.9
2017-01-14T03:04:36.610Z,99.2
2017-01-14T03:04:57.915Z,99.7
2017-01-14T03:05:19.232Z,99.7
2017-01-14T03:05:40.537Z,99.2
2017-01-14T03:06:01.856Z,99.4
2017-01-14T03:06:23.159Z,98.8
2017-01-14T03:06:44.469Z,99.1
2017-01-14T03:07:05.773Z,98.8
2017-01-14T03:07:27.076Z,98.4
2017-01-14T03:07:48.381Z,98.9
2017-01-14T03:08:09.704Z,99.3
2017-01-14T03:08:31.030Z,99.9
2017-01-14T03:08:52.355Z,99.8
2017-01-14T03:09:13.659Z,99.8
2017-01-14T03:09:34.971Z,99.4
2017-01-14T03:09:56.287Z,99.2
2017-01-14T03:10:17.659Z,99.2
2017-01-14T03:10:38.973Z,99.7
2017-01-14T03:11:00.281Z,99.1
2017-01-14T03:11:22.076Z,99.8
2017-01-14T03:11:43.397Z,99.2
2017-01-14T03:12:04.702Z,99.4
2017-01-14T03:12:25.997Z,99.1
2017-01-14T03:12:47.300Z,99.7
2017-01-14T03:13:08.658Z,99.3
2017-01-14T03:13:29.981Z,99.5
2017-01-14T03:13:51.280Z,99.4
2017-01-14T03:14:12.622Z,98.8
2017-01-14T03:14:33.924Z,98.9
2017-01-14T03:14:55.288Z,98.7
2017-01-14T03:15:16.626Z,98.3
2017-01-14T03:15:37.977Z,98.3
2017-01-14T03:15:59.279Z,98.8
2017-01-14T03:16:20.589Z,98.8
2017-01-14T03:16:41.890Z,97.9
2017-01-14T03:17:03.186Z,98
2017-01-14T03:17:24.496Z,97.5
2017-01-14T03:17:45.817Z,96.8
2017-01-14T03:18:07.158Z,97.5
2017-01-14T03:18:28.495Z,96.9
2017-01-14T03:18:49.815Z,97.4
2017-01-14T03:19:11.112Z,97.4
2017-01-14T03:19:32.440Z,97.5
2017-01-14T03:19:53.769Z,97.4
2017-01-14T03:20:15.075Z,97.7
2017-01-14T03:20:36.375Z,97.9
2017-01-14T03:20:57.814Z,97.9
2017-01-14T03:21:19.124Z,98.5
2017-01-14T03:21:40.423Z,98.1
2017-01-14T03:22:01.757Z,98.3
2017-01-14T03:22:23.067Z,98
2017-01-14T03:22:44.376Z,98.1
2017-01-14T03:23:05.681Z,98.4
2017-01-14T03:23:26.991Z,98.6
2017-01-14T03:23:48.298Z,98.2
2017-01-14T03:24:09.611Z,98.5
2017-01-14T03:24:30.931Z,98.2
2017-01-14T03:24:52.233Z,98
2017-01-14T03:25:13.588Z,97.3
2017-01-14T03:25:34.910Z,97.2
2017-01-14T03:25:56.209Z,96.4
2017-01-14T03:26:17.504Z,95.9
2017-01-14T03:26:38.803Z,95.6
2017-01-14T03:27:00.106Z,96.6
2017-01-14T03:27:21.441Z,96.5
2017-01-14T03:27:42.797Z,96.3
2017-01-14T03:28:04.092Z,96.7
2017-01-14T03:28:25.436Z,96.7
2017-01-14T03:28:46.734Z,96.6
2017-01-14T03:29:08.027Z,96.6
2017-01-14T03:29:29.343Z,96.4
2017-01-14T03:29:50.651Z,96.5
2017-01-14T03:30:11.963Z,96.5
2017-01-14T03:30:33.292Z,96.4
2017-01-14T03:30:54.620Z,96.7
2017-01-14T03:31:15.955Z,97.1
2017-01-14T03:31:37.275Z,96.8
2017-01-14T03:31:58.580Z,96.3
2017-01-14T03:32:19.875Z,96.5
2017-01-14T03:32:41.192Z,96.1
2017-01-14T03:33:02.496Z,96.1
2017-01-14T03:33:23.798Z,96.1
2017-01-14T03:33:45.137Z,96.1
2017-01-14T03:34:06.435Z,95.5
2017-01-14T03:34:27.736Z,95.7
2017-01-14T03:34:49.051Z,95.7
2017-01-14T03:35:10.369Z,95.4
2017-01-14T03:35:31.667Z,95.5
2017-01-14T03:35:52.969Z,95.7
2017-01-14T03:36:14.309Z,96
2017-01-14T03:36:35.613Z,95.7
2017-01-14T03:36:56.911Z,95.3
2017-01-14T03:37:18.244Z,95.5
2017-01-14T03:37:39.552Z,95.6
2017-01-14T03:38:00.857Z,95.6
2017-01-14T03:38:22.159Z,95.9
2017-01-14T03:38:43.469Z,96.6
2017-01-14T03:39:04.805Z,96.6
2017-01-14T03:39:26.116Z,96.3
2017-01-14T03:39:47.416Z,96.4
2017-01-14T03:40:08.728Z,96.3
2017-01-14T03:40:30.046Z,96.6
2017-01-14T03:40:51.352Z,96.7
2017-01-14T03:41:12.652Z,96.5
2017-01-14T03:41:33.954Z,95.7
2017-01-14T03:41:55.270Z,96.1
2017-01-14T03:42:16.575Z,96.1
2017-01-14T03:42:37.896Z,96.1
2017-01-14T03:42:59.200Z,95.7
2017-01-14T03:43:20.554Z,95.3
2017-01-14T03:43:41.871Z,95.8
2017-01-14T03:44:03.181Z,95.4
2017-01-14T03:44:24.527Z,95.1
2017-01-14T03:44:45.839Z,94.9
2017-01-14T03:45:07.162Z,94.3
2017-01-14T03:45:28.465Z,94.2
2017-01-14T03:45:49.804Z,94.6
2017-01-14T03:46:11.143Z,95.3
2017-01-14T03:46:33.184Z,94.9
2017-01-14T03:46:54.501Z,94.3
2017-01-14T03:47:15.819Z,94
2017-01-14T03:47:37.125Z,94.1
2017-01-14T03:47:58.432Z,94.3
2017-01-14T03:48:19.726Z,94.1
2017-01-14T03:48:41.038Z,94
2017-01-14T03:49:02.344Z,93.6
2017-01-14T03:49:23.685Z,93.8
2017-01-14T03:49:45.045Z,92.6
2017-01-14T03:50:06.360Z,92.3
2017-01-14T03:50:27.681Z,92.6
2017-01-14T03:50:49.008Z,92.9
2017-01-14T03:51:10.310Z,92.9
2017-01-14T03:51:31.612Z,92.4
2017-01-14T03:51:52.920Z,91.8
2017-01-14T03:52:14.251Z,91.5
2017-01-14T03:52:35.575Z,92
2017-01-14T03:52:56.898Z,91.7
2017-01-14T03:53:18.205Z,91.7
2017-01-14T03:53:40.135Z,92.4
2017-01-14T03:54:01.450Z,91.8
2017-01-14T03:54:22.760Z,91.1
2017-01-14T03:54:44.125Z,91.1
2017-01-14T03:55:05.442Z,92
2017-01-14T03:55:26.742Z,91.5
2017-01-14T03:55:48.084Z,91.2
2017-01-14T03:56:09.402Z,91.1
2017-01-14T03:56:30.760Z,91.1
2017-01-14T03:56:52.083Z,91.5
2017-01-14T03:57:13.386Z,91.4
2017-01-14T03:57:35.979Z,91.2
2017-01-14T03:57:57.302Z,91.5
2017-01-14T03:58:18.616Z,91.3
2017-01-14T03:58:39.955Z,91.3
2017-01-14T03:59:01.260Z,91.3
2017-01-14T03:59:22.553Z,91.3
2017-01-14T03:59:43.858Z,91.6
2017-01-14T04:00:05.163Z,92.6
2017-01-14T04:00:26.489Z,92.6
2017-01-14T04:00:47.796Z,92.8
2017-01-14T04:01:10.032Z,92.9
2017-01-14T04:01:31.358Z,93.6
2017-01-14T04:01:52.666Z,93
2017-01-14T04:02:14.676Z,94
2017-01-14T04:02:36.848Z,93.7
2017-01-14T04:02:58.177Z,94.1
2017-01-14T04:03:19.488Z,94.2
2017-01-14T04:03:40.791Z,93.9
2017-01-14T04:04:02.135Z,94.9
2017-01-14T04:04:23.443Z,94.9
2017-01-14T04:04:44.751Z,95.4
2017-01-14T04:05:06.088Z,95.3
2017-01-14T04:05:27.389Z,95.1
2017-01-14T04:05:48.708Z,95.7
2017-01-14T04:06:10.011Z,95.9
2017-01-14T04:06:31.317Z,96.4
2017-01-14T04:06:52.623Z,96.1
2017-01-14T04:07:13.926Z,96.7
2017-01-14T04:07:35.220Z,96.9
2017-01-14T04:07:56.571Z,97.5
2017-01-14T04:08:17.890Z,97.6
2017-01-14T04:08:39.242Z,98.1
2017-01-14T04:09:00.558Z,97.8
2017-01-14T04:09:21.888Z,98
2017-01-14T04:09:43.194Z,98.4
2017-01-14T04:10:04.513Z,98.7
2017-01-14T04:10:25.828Z,99
2017-01-14T04:10:47.156Z,99.8
2017-01-14T04:11:08.450Z,99.5
2017-01-14T04:11:29.769Z,99.7
2017-01-14T04:11:51.075Z,100
2017-01-14T04:12:12.412Z,99.8
2017-01-14T04:12:33.725Z,99.9
2017-01-14T04:12:55.019Z,100
2017-01-14T04:13:16.331Z,100
2017-01-14T04:13:37.647Z,99.9
2017-01-14T04:13:58.986Z,100
2017-01-14T04:14:20.331Z,100
2017-01-14T04:14:41.630Z,100
2017-01-14T04:15:02.957Z,100
2017-01-14T04:15:24.253Z,100
2017-01-14T04:15:45.564Z,100
2017-01-14T04:16:06.877Z,100
2017-01-14T04:16:28.189Z,100
2017-01-14T04:16:49.503Z,100
2017-01-14T04:17:10.810Z,100
2017-01-14T04:17:32.118Z,100
2017-01-14T04:17:53.428Z,100
2017-01-14T04:18:14.728Z,100
2017-01-14T04:18:36.049Z,100
2017-01-14T04:18:57.351Z,100
2017-01-14T04:19:18.646Z,100
2017-01-14T04:19:39.963Z,100
2017-01-14T04:20:01.293Z,100
2017-01-14T04:20:22.598Z,100
2017-01-14T04:20:43.931Z,100
2017-01-14T04:21:05.253Z,100
2017-01-14T04:21:26.568Z,100
2017-01-14T04:21:47.898Z,100
2017-01-14T04:22:09.201Z,100
2017-01-14T04:22:30.526Z,100
2017-01-14T04:22:51.851Z,100
2017-01-14T04:23:13.171Z,100
2017-01-14T04:23:34.492Z,100
2017-01-14T04:23:55.778Z,100
2017-01-14T04:24:17.067Z,100
2017-01-14T04:24:38.368Z,100
2017-01-14T04:24:59.695Z,100
2017-01-14T04:25:20.985Z,100
2017-01-14T04:25:42.282Z,100
2017-01-14T04:26:03.615Z,100
2017-01-14T04:26:24.922Z,100
2017-01-14T04:26:46.247Z,100
2017-01-14T04:27:07.574Z,100
2017-01-14T04:27:28.897Z,100
2017-01-14T04:27:50.196Z,100
2017-01-14T04:28:11.492Z,100
2017-01-14T04:28:32.822Z,100
2017-01-14T04:28:54.116Z,100
2017-01-14T04:29:15.413Z,99.8
2017-01-14T04:29:36.716Z,100
2017-01-14T04:29:58.012Z,100
2017-01-14T04:30:19.317Z,100
2017-01-14T04:30:40.617Z,100
2017-01-14T04:31:01.926Z,100
2017-01-14T04:31:23.252Z,100
2017-01-14T04:31:44.554Z,99.9
2017-01-14T04:32:05.861Z,99.8
2017-01-14T04:32:27.186Z,99.9
2017-01-14T04:32:48.487Z,100
2017-01-14T04:33:09.783Z,100
2017-01-14T04:33:31.090Z,100
2017-01-14T04:33:52.397Z,100
2017-01-14T04:34:13.694Z,100
2017-01-14T04:34:35.007Z,100
2017-01-14T04:34:56.302Z,100
2017-01-14T04:35:17.630Z,100
2017-01-14T04:35:38.957Z,100
2017-01-14T04:36:00.286Z,100
2017-01-14T04:36:21.628Z,100
2017-01-14T04:36:42.933Z,99.9
2017-01-14T04:37:04.232Z,99.8
2017-01-14T04:37:25.531Z,99.4
2017-01-14T04:37:46.848Z,99.8
2017-01-14T04:38:08.170Z,98.7
2017-01-14T04:38:29.477Z,98.7
2017-01-14T04:38:50.770Z,98.6
2017-01-14T04:39:12.080Z,98
2017-01-14T04:39:33.407Z,97.5
2017-01-14T04:39:54.737Z,97.5
2017-01-14T04:40:16.084Z,96.4
2017-01-14T04:40:37.397Z,96.2
2017-01-14T04:40:58.718Z,96
2017-01-14T04:41:20.028Z,95.4
2017-01-14T04:41:41.339Z,95.6
2017-01-14T04:42:02.650Z,95.7
2017-01-14T04:42:23.973Z,95.6
2017-01-14T04:42:45.276Z,95.6
2017-01-14T04:43:06.591Z,95.8
2017-01-14T04:43:27.903Z,96.2
2017-01-14T04:43:49.194Z,96.5
2017-01-14T04:44:10.502Z,96.3
2017-01-14T04:44:31.802Z,96.9
2017-01-14T04:44:53.104Z,96.9
2017-01-14T04:45:14.423Z,96.4
2017-01-14T04:45:35.753Z,96.8
2017-01-14T04:45:57.064Z,96.1
2017-01-14T04:46:18.395Z,95.5
2017-01-14T04:46:39.770Z,95.3
2017-01-14T04:47:01.102Z,94.7
2017-01-14T04:47:22.399Z,94.8
2017-01-14T04:47:43.701Z,94.9